Time;durP1;ratioP1;P1;durP2;ratioP2;P2;SDS_P1;SDS_P2;PMS_P1;PMS_P2;Temp;Humidity;BMP_temperature;BMP_pressure;BME280_temperature;BME280_humidity;BME280_pressure;Samples;Min_cycle;Max_cycle;Signal;HPM_P1;HPM_P2
2023/04/19 00:01:25;;;;;;;12.55;7.75;;;;;;;10.35;40.51;149895.13;5063880;28;20041;-67
2023/04/19 00:03:51;;;;;;;11.10;8.20;;;;;;;10.48;40.42;149928.47;5064165;28;20032;-67
2023/04/19 00:06:16;;;;;;;10.15;7.82;;;;;;;10.48;40.51;149928.47;5045397;28;20053;-68
2023/04/19 00:08:43;;;;;;;13.10;8.02;;;;;;;10.47;40.03;149925.88;5061046;28;20198;-67
2023/04/19 00:11:09;;;;;;;11.90;7.97;;;;;;;10.47;40.44;149925.88;5056976;28;20043;-66
2023/04/19 00:13:35;;;;;;;11.60;7.22;;;;;;;10.45;39.73;149919.50;5057637;28;20037;-67
2023/04/19 00:16:01;;;;;;;12.02;8.10;;;;;;;10.37;40.41;149900.25;5046689;28;20040;-67
2023/04/19 00:18:26;;;;;;;10.38;8.18;;;;;;;10.37;39.99;149900.25;5044966;28;20199;-66
2023/04/19 00:20:52;;;;;;;10.50;7.53;;;;;;;10.32;39.65;149887.41;5062595;28;20025;-66
2023/04/19 00:23:18;;;;;;;11.68;7.43;;;;;;;10.38;39.92;149902.81;5064721;28;20047;-65
2023/04/19 00:25:48;;;;;;;13.20;8.18;;;;;;;10.30;40.46;149882.25;5056597;28;20040;-67
2023/04/19 00:28:14;;;;;;;10.38;7.20;;;;;;;10.28;40.10;149878.41;5049172;28;20040;-66
2023/04/19 00:30:39;;;;;;;11.05;7.97;;;;;;;10.44;40.02;149918.19;5064345;28;20089;-67
2023/04/19 00:33:11;;;;;;;9.63;7.95;;;;;;;10.47;40.12;149924.63;5063644;28;20033;-66
2023/04/19 00:35:39;;;;;;;12.40;7.88;;;;;;;10.36;39.97;149897.66;5047646;28;20043;-67
2023/04/19 00:38:05;;;;;;;12.65;8.13;;;;;;;10.38;39.65;149902.81;5054783;28;20485;-66
2023/04/19 00:40:31;;;;;;;12.80;7.68;;;;;;;10.38;40.00;149902.81;5059960;28;20040;-67
2023/04/19 00:42:56;;;;;;;12.65;7.78;;;;;;;10.38;40.41;149902.81;5046069;28;20234;-66
2023/04/19 00:45:22;;;;;;;10.70;6.97;;;;;;;10.35;39.80;149895.13;5064382;28;20044;-67
2023/04/19 00:47:48;;;;;;;13.25;7.88;;;;;;;10.22;40.67;149861.72;5047494;28;20030;-66
2023/04/19 00:50:14;;;;;;;9.35;7.43;;;;;;;10.16;40.16;149848.94;5044530;28;20037;-66
2023/04/19 00:52:40;;;;;;;17.73;7.70;;;;;;;10.18;40.19;149854.03;5051707;28;20037;-67
2023/04/19 00:55:07;;;;;;;10.55;6.78;;;;;;;10.11;39.94;149834.84;5061480;28;20045;-65
2023/04/19 00:57:32;;;;;;;13.98;6.97;;;;;;;10.24;40.78;149866.88;5043504;28;20057;-67
2023/04/19 00:59:58;;;;;;;8.52;6.60;;;;;;;10.00;41.04;149807.88;5062491;28;20051;-66
2023/04/19 01:02:24;;;;;;;18.50;7.68;;;;;;;9.91;40.85;149784.84;5050781;28;20029;-68
2023/04/19 01:04:50;;;;;;;10.45;6.85;;;;;;;9.97;40.74;149801.47;5052758;28;20326;-67
2023/04/19 01:07:18;;;;;;;11.48;7.20;;;;;;;9.99;40.80;149806.63;5059983;28;20032;-66
2023/04/19 01:09:44;;;;;;;9.82;7.15;;;;;;;10.12;41.05;149837.41;5043129;28;20234;-66
2023/04/19 01:12:09;;;;;;;10.60;7.57;;;;;;;10.15;40.81;149845.09;5062538;28;20059;-66
2023/04/19 01:14:35;;;;;;;12.43;6.97;;;;;;;9.89;41.03;149781.00;5048756;28;20026;-67
2023/04/19 01:17:00;;;;;;;13.50;7.50;;;;;;;10.02;41.32;149813.03;5043852;28;20036;-67
2023/04/19 01:19:26;;;;;;;12.00;7.60;;;;;;;10.01;40.84;149810.47;5049137;28;20024;-67
2023/04/19 01:21:52;;;;;;;11.77;7.38;;;;;;;9.93;41.70;149789.94;5063226;28;20025;-66
2023/04/19 01:24:17;;;;;;;10.02;6.93;;;;;;;10.06;41.32;149823.31;5044075;28;20045;-66
2023/04/19 01:26:43;;;;;;;10.25;7.55;;;;;;;10.04;41.47;149816.88;5059595;28;20024;-67
2023/04/19 01:29:08;;;;;;;13.05;7.28;;;;;;;10.00;41.58;149807.88;5052321;28;20044;-66
2023/04/19 01:31:34;;;;;;;11.88;7.28;;;;;;;9.91;41.77;149784.84;5049949;28;20048;-67
2023/04/19 01:33:59;;;;;;;12.23;6.95;;;;;;;9.93;42.03;149791.25;5062390;28;20115;-68
2023/04/19 01:36:26;;;;;;;10.40;7.35;;;;;;;10.00;41.42;149809.22;5063576;28;20336;-68
2023/04/19 01:38:52;;;;;;;10.75;6.82;;;;;;;9.95;41.25;149795.09;5046299;28;20059;-66
2023/04/19 01:41:19;;;;;;;10.88;7.05;;;;;;;9.98;42.04;149802.78;5055554;28;20024;-67
2023/04/19 01:43:44;;;;;;;11.55;7.15;;;;;;;10.07;41.00;149825.84;5054941;28;20051;-66
2023/04/19 01:46:10;;;;;;;11.23;7.20;;;;;;;9.92;41.45;149788.69;5046493;28;20025;-66
2023/04/19 01:48:35;;;;;;;10.60;6.72;;;;;;;9.96;41.91;149798.94;5063359;28;20025;-66
2023/04/19 01:51:01;;;;;;;11.00;6.68;;;;;;;10.03;42.18;149815.56;5045018;28;20033;-66
2023/04/19 01:53:27;;;;;;;14.02;7.53;;;;;;;9.92;41.50;149788.69;5055496;28;20257;-65
2023/04/19 01:55:52;;;;;;;9.25;6.95;;;;;;;9.98;41.58;149804.06;5063116;28;20036;-66
2023/04/19 01:58:18;;;;;;;10.15;6.75;;;;;;;9.97;42.62;149800.22;5059237;28;20318;-66
2023/04/19 02:00:43;;;;;;;9.80;7.25;;;;;;;10.09;42.26;149831.00;5044869;28;20025;-66
2023/04/19 02:03:09;;;;;;;10.85;7.30;;;;;;;10.17;42.52;149850.19;5043679;28;20083;-68
2023/04/19 02:05:35;;;;;;;11.27;7.05;;;;;;;10.18;42.15;149852.78;5043290;28;20037;-66
2023/04/19 02:08:00;;;;;;;10.55;6.95;;;;;;;10.10;41.96;149832.25;5052807;28;20267;-66
2023/04/19 02:10:26;;;;;;;8.30;7.00;;;;;;;10.23;42.26;149864.31;5058229;28;20036;-66
2023/04/19 02:12:52;;;;;;;11.40;6.57;;;;;;;10.01;42.35;149811.72;5041767;28;20029;-67
2023/04/19 02:15:17;;;;;;;10.63;7.15;;;;;;;10.15;41.94;149846.34;5062381;28;20029;-66
2023/04/19 02:17:45;;;;;;;13.82;7.15;;;;;;;10.10;42.20;149833.53;5047505;28;20073;-67
2023/04/19 02:20:11;;;;;;;11.95;6.78;;;;;;;10.21;41.41;149860.47;5054048;28;20037;-66
2023/04/19 02:22:37;;;;;;;9.20;6.05;;;;;;;10.30;41.60;149882.25;5056696;28;20028;-65
2023/04/19 02:25:03;;;;;;;9.80;7.07;;;;;;;10.19;41.62;149856.63;5044323;28;20048;-66
2023/04/19 02:27:30;;;;;;;10.52;6.55;;;;;;;10.40;41.82;149906.66;5062691;28;20032;-66
2023/04/19 02:29:56;;;;;;;9.02;6.20;;;;;;;10.48;42.29;149927.19;5045846;28;20060;-67
2023/04/19 02:32:21;;;;;;;10.55;7.05;;;;;;;10.46;41.31;149923.34;5043308;28;20036;-65
2023/04/19 02:34:47;;;;;;;8.07;6.20;;;;;;;10.55;42.40;149945.16;5052971;28;20104;-66
2023/04/19 02:37:12;;;;;;;10.50;6.30;;;;;;;10.40;42.24;149906.66;5059847;28;20080;-66
2023/04/19 02:39:40;;;;;;;13.85;6.95;;;;;;;10.53;41.46;149940.00;5042829;28;20378;-67
2023/04/19 02:42:06;;;;;;;11.63;6.78;;;;;;;10.41;41.82;149910.50;5055697;28;20306;-66
2023/04/19 02:44:31;;;;;;;14.73;7.35;;;;;;;10.34;42.22;149892.56;5049169;28;20049;-67
2023/04/19 02:46:57;;;;;;;9.88;6.32;;;;;;;10.32;42.43;149888.66;5042659;28;20051;-66
2023/04/19 02:49:23;;;;;;;9.95;6.93;;;;;;;10.36;41.69;149897.66;5042859;28;20041;-66
2023/04/19 02:51:50;;;;;;;10.23;7.50;;;;;;;10.25;41.99;149870.72;5042808;28;20025;-67
2023/04/19 02:54:16;;;;;;;13.57;6.82;;;;;;;10.29;42.57;149879.66;5061918;28;20170;-65
2023/04/19 02:56:42;;;;;;;11.45;7.00;;;;;;;10.15;43.23;149846.34;5060660;28;20139;-66
2023/04/19 02:59:07;;;;;;;10.18;7.13;;;;;;;10.16;42.36;149847.63;5065725;28;20037;-65
2023/04/19 03:01:33;;;;;;;12.07;7.18;;;;;;;10.13;42.63;149841.25;5065978;28;20037;-66
2023/04/19 03:03:59;;;;;;;13.75;7.38;;;;;;;9.79;43.35;149756.63;5065220;28;20253;-68
2023/04/19 03:06:25;;;;;;;11.15;6.95;;;;;;;9.92;43.12;149788.69;5046419;28;20063;-66
2023/04/19 03:08:50;;;;;;;9.50;6.75;;;;;;;9.92;42.81;149787.38;5040802;28;20021;-66
2023/04/19 03:11:17;;;;;;;9.38;6.95;;;;;;;9.82;42.43;149763.06;5057411;28;20024;-66
2023/04/19 03:13:43;;;;;;;11.15;6.80;;;;;;;9.81;42.40;149760.50;5066157;28;20029;-65
2023/04/19 03:16:09;;;;;;;11.23;6.45;;;;;;;9.78;42.56;149752.81;5064373;28;20097;-66
2023/04/19 03:18:35;;;;;;;10.00;6.95;;;;;;;9.77;42.49;149750.22;5046057;28;20116;-65
2023/04/19 03:21:01;;;;;;;11.02;6.70;;;;;;;9.94;41.69;149792.53;5045790;28;20070;-65
2023/04/19 03:23:27;;;;;;;11.82;7.28;;;;;;;9.93;42.01;149791.25;5058754;28;20036;-65
2023/04/19 03:25:53;;;;;;;8.20;6.38;;;;;;;9.94;42.54;149792.53;5057843;28;20029;-66
2023/04/19 03:28:19;;;;;;;12.98;6.63;;;;;;;9.80;42.30;149759.16;5049021;28;20035;-65
2023/04/19 03:30:45;;;;;;;10.63;6.47;;;;;;;9.72;42.60;149738.69;5066023;28;20033;-64
2023/04/19 03:33:11;;;;;;;10.85;6.97;;;;;;;9.62;42.06;149714.34;5064558;28;20221;-65
2023/04/19 03:35:36;;;;;;;12.32;6.82;;;;;;;9.80;42.07;149759.16;5064311;28;20021;-65
2023/04/19 03:38:02;;;;;;;10.68;6.90;;;;;;;9.99;42.15;149805.31;5065801;28;20035;-65
2023/04/19 03:40:31;;;;;;;11.23;6.38;;;;;;;9.75;42.42;149746.38;5061575;28;20231;-66
2023/04/19 03:42:57;;;;;;;11.15;6.45;;;;;;;9.97;42.12;149800.22;5045492;28;20021;-67
2023/04/19 03:45:23;;;;;;;9.73;6.15;;;;;;;9.89;42.13;149781.00;5044436;28;20056;-66
2023/04/19 03:47:48;;;;;;;12.48;6.18;;;;;;;9.91;41.03;149784.84;5060884;28;20033;-65
2023/04/19 03:50:14;;;;;;;8.02;6.57;;;;;;;9.84;41.71;149769.44;5054960;28;20025;-65
2023/04/19 03:52:39;;;;;;;6.82;5.95;;;;;;;9.84;42.11;149768.16;5051218;28;20048;-66
2023/04/19 03:55:06;;;;;;;10.63;6.28;;;;;;;9.83;41.51;149766.91;5063974;28;20033;-67
2023/04/19 03:57:31;;;;;;;11.40;7.03;;;;;;;9.92;41.46;149787.38;5045492;28;20067;-67
2023/04/19 03:59:57;;;;;;;11.52;6.40;;;;;;;10.00;41.91;149807.88;5061726;28;20025;-66
2023/04/19 04:02:22;;;;;;;10.77;6.95;;;;;;;9.94;41.08;149792.53;5053679;28;20325;-64
2023/04/19 04:04:53;;;;;;;10.32;6.60;;;;;;;9.80;41.93;149757.91;5052002;28;20048;-66
2023/04/19 04:07:20;;;;;;;8.75;6.07;;;;;;;9.67;42.17;149725.88;5061416;28;20032;-65
2023/04/19 04:09:47;;;;;;;9.02;6.90;;;;;;;9.68;42.78;149729.72;5044206;28;20207;-65
2023/04/19 04:12:12;;;;;;;10.38;7.00;;;;;;;9.99;42.77;149806.63;5045249;28;20401;-65
2023/04/19 04:14:38;;;;;;;9.65;6.55;;;;;;;9.98;41.30;149804.06;5058733;28;20025;-65
2023/04/19 04:17:03;;;;;;;9.73;6.53;;;;;;;10.15;42.08;149846.34;5055883;28;20037;-65
2023/04/19 04:19:29;;;;;;;11.90;6.50;;;;;;;10.06;42.14;149822.00;5044948;28;20044;-64
2023/04/19 04:21:55;;;;;;;9.02;6.57;;;;;;;10.25;41.62;149870.72;5056334;28;20029;-66
2023/04/19 04:24:21;;;;;;;13.13;6.95;;;;;;;10.17;41.53;149851.47;5045753;28;20071;-65
2023/04/19 04:26:48;;;;;;;12.23;6.03;;;;;;;10.18;40.98;149854.03;5044835;28;20025;-66
2023/04/19 04:29:15;;;;;;;19.00;7.40;;;;;;;10.30;40.93;149882.25;5044410;28;20029;-66
2023/04/19 04:31:41;;;;;;;13.88;6.22;;;;;;;10.38;40.99;149902.81;5045585;28;20026;-66
2023/04/19 04:34:08;;;;;;;11.73;6.60;;;;;;;10.52;41.17;149937.47;5044359;28;20027;-65
2023/04/19 04:36:35;;;;;;;13.05;6.53;;;;;;;10.71;40.27;149986.16;5043401;28;20040;-66
2023/04/19 04:39:01;;;;;;;18.75;6.40;;;;;;;10.72;40.51;149987.47;5044443;28;20048;-65
2023/04/19 04:41:30;;;;;;;13.63;6.90;;;;;;;10.51;41.07;149936.16;5056294;28;20046;-65
2023/04/19 04:43:59;;;;;;;13.13;6.40;;;;;;;10.82;40.82;150013.13;5056614;28;20109;-64
2023/04/19 04:46:25;;;;;;;8.23;6.18;;;;;;;10.69;40.39;149981.06;5047395;28;20197;-65
2023/04/19 04:48:52;;;;;;;10.60;6.40;;;;;;;10.33;41.20;149891.25;5064005;28;20235;-65
2023/04/19 04:51:17;;;;;;;10.23;6.25;;;;;;;10.69;40.56;149981.06;5045066;28;20064;-66
2023/04/19 04:53:43;;;;;;;14.98;6.45;;;;;;;10.81;40.58;150010.53;5044260;28;20294;-67
2023/04/19 04:56:08;;;;;;;9.15;6.47;;;;;;;10.86;40.26;150022.13;5053317;28;20071;-66
2023/04/19 04:58:34;;;;;;;13.02;6.05;;;;;;;11.01;40.10;150059.28;5063621;28;20048;-67
2023/04/19 05:01:00;;;;;;;10.85;6.05;;;;;;;10.96;39.86;150046.44;5063524;28;20055;-66
2023/04/19 05:03:26;;;;;;;11.68;6.40;;;;;;;10.80;40.58;150008.00;5043725;28;20044;-64
2023/04/19 05:05:51;;;;;;;10.40;6.38;;;;;;;10.99;40.14;150055.44;5058528;28;20309;-66
2023/04/19 05:08:17;;;;;;;10.85;6.15;;;;;;;11.19;40.08;150104.22;5043988;28;20025;-65
2023/04/19 05:10:43;;;;;;;13.20;5.90;;;;;;;11.21;39.54;150110.59;5049145;28;20036;-66
2023/04/19 05:13:08;;;;;;;9.75;5.88;;;;;;;11.30;40.03;150131.13;5062365;28;20044;-67
2023/04/19 05:15:34;;;;;;;15.30;6.50;;;;;;;11.43;40.00;150163.22;5043479;28;20341;-66
2023/04/19 05:18:00;;;;;;;17.23;6.80;;;;;;;11.47;39.96;150173.47;5059404;28;20032;-67
2023/04/19 05:20:25;;;;;;;11.88;6.20;;;;;;;11.67;39.85;150223.53;5052104;28;20040;-65
2023/04/19 05:22:56;;;;;;;11.60;6.35;;;;;;;11.86;40.38;150272.31;5048831;28;20025;-65
2023/04/19 05:25:22;;;;;;;15.88;6.28;;;;;;;11.77;39.93;150247.94;5061651;28;20212;-65
2023/04/19 05:27:47;;;;;;;9.60;6.60;;;;;;;11.99;39.65;150304.47;5063347;28;20056;-66
2023/04/19 05:30:13;;;;;;;14.20;6.78;;;;;;;12.12;39.67;150336.56;5045595;28;20025;-65
2023/04/19 05:32:39;;;;;;;9.52;6.63;;;;;;;12.00;39.29;150307.03;5045215;28;20021;-65
2023/04/19 05:35:05;;;;;;;9.20;6.38;;;;;;;12.48;39.19;150426.44;5055421;28;20071;-65
2023/04/19 05:37:30;;;;;;;15.10;6.95;;;;;;;12.49;39.52;150427.75;5059509;28;20029;-65
2023/04/19 05:39:57;;;;;;;12.63;6.18;;;;;;;12.62;39.27;150461.13;5043045;28;20067;-65
2023/04/19 05:42:22;;;;;;;15.40;7.15;;;;;;;12.85;39.08;150517.66;5062372;28;20106;-65
2023/04/19 05:44:48;;;;;;;9.80;7.05;;;;;;;13.27;39.23;150623.03;5051455;28;20029;-64
2023/04/19 05:47:13;;;;;;;11.00;7.18;;;;;;;13.03;37.86;150562.63;5053508;28;20061;-64
2023/04/19 05:49:39;;;;;;;10.27;6.68;;;;;;;13.31;37.91;150633.31;5042520;28;20280;-65
2023/04/19 05:52:05;;;;;;;11.73;7.45;;;;;;;13.56;37.63;150696.31;5042808;28;20113;-65
2023/04/19 05:54:34;;;;;;;14.82;7.05;;;;;;;13.38;37.39;150651.34;5043344;28;20210;-64
2023/04/19 05:57:01;;;;;;;10.85;7.90;;;;;;;14.00;36.16;150805.59;5058748;28;20235;-64
2023/04/19 05:59:26;;;;;;;14.52;7.82;;;;;;;14.55;35.15;150941.88;5051652;28;20041;-66
2023/04/19 06:01:52;;;;;;;12.82;6.47;;;;;;;14.84;34.83;151015.28;5041779;28;20025;-65
2023/04/19 06:04:17;;;;;;;14.88;6.63;;;;;;;14.80;35.18;151005.00;5044649;28;20021;-66
2023/04/19 06:06:43;;;;;;;9.95;6.90;;;;;;;15.10;34.83;151079.63;5063138;28;20029;-66
2023/04/19 06:09:08;;;;;;;9.57;6.32;;;;;;;14.92;34.48;151035.88;5045757;28;20037;-66
2023/04/19 06:11:34;;;;;;;10.77;5.93;;;;;;;14.66;34.42;150971.56;5054788;28;20048;-66
2023/04/19 06:14:00;;;;;;;8.35;5.57;;;;;;;13.97;34.58;150799.16;5054979;28;20034;-66
2023/04/19 06:16:25;;;;;;;9.38;5.88;;;;;;;14.42;33.31;150909.72;5042843;28;20033;-66
2023/04/19 06:18:51;;;;;;;10.23;5.80;;;;;;;14.26;33.50;150871.16;5042597;28;20309;-66
2023/04/19 06:21:16;;;;;;;9.70;5.45;;;;;;;15.03;33.70;151062.88;5060479;28;20028;-65
2023/04/19 06:23:42;;;;;;;10.40;4.80;;;;;;;14.56;33.39;150944.47;5049783;28;20056;-65
2023/04/19 06:26:07;;;;;;;11.68;5.07;;;;;;;14.17;33.35;150848.03;5042682;28;20324;-65
2023/04/19 06:28:33;;;;;;;10.85;6.00;;;;;;;14.23;33.60;150863.44;5046302;28;20059;-66
2023/04/19 06:30:59;;;;;;;12.27;5.50;;;;;;;14.80;32.40;151005.00;5064574;28;20035;-66
2023/04/19 06:33:24;;;;;;;10.27;5.03;;;;;;;14.73;32.27;150988.25;5046598;28;20111;-66
2023/04/19 06:35:50;;;;;;;11.40;5.15;;;;;;;15.05;31.78;151068.03;5064416;28;20097;-66
2023/04/19 06:38:15;;;;;;;12.10;5.15;;;;;;;15.58;31.57;151200.59;5058316;28;20026;-65
2023/04/19 06:40:41;;;;;;;13.15;5.05;;;;;;;15.74;31.20;151239.22;5049073;28;20040;-67
2023/04/19 06:43:07;;;;;;;9.93;4.90;;;;;;;15.27;30.96;151122.09;5048185;28;20052;-67
2023/04/19 06:45:32;;;;;;;9.85;4.93;;;;;;;15.09;30.84;151077.03;5066475;28;20027;-66
2023/04/19 06:47:58;;;;;;;7.40;4.53;;;;;;;15.13;31.21;151088.59;5051483;28;20025;-66
2023/04/19 06:50:23;;;;;;;11.68;4.80;;;;;;;15.01;31.01;151059.00;5057127;28;20044;-66
2023/04/19 06:52:49;;;;;;;6.18;4.45;;;;;;;15.31;30.56;151133.66;5060599;28;20068;-67
2023/04/19 06:55:15;;;;;;;6.78;4.90;;;;;;;15.62;30.59;151210.91;5046914;28;20321;-66
2023/04/19 06:57:41;;;;;;;11.38;4.95;;;;;;;15.74;30.63;151239.22;5066572;28;20029;-66
2023/04/19 07:00:07;;;;;;;7.00;4.07;;;;;;;15.20;30.71;151105.34;5050344;28;20092;-66
2023/04/19 07:02:33;;;;;;;7.35;4.22;;;;;;;15.76;30.31;151244.34;5057929;28;20047;-66
2023/04/19 07:04:59;;;;;;;9.63;4.60;;;;;;;16.08;29.46;151324.25;5059284;28;20323;-66
2023/04/19 07:07:25;;;;;;;10.00;4.30;;;;;;;16.48;29.36;151424.69;5048225;28;20087;-65
2023/04/19 07:09:51;;;;;;;7.53;4.60;;;;;;;16.50;29.40;151431.16;5066129;28;20212;-68
2023/04/19 07:12:16;;;;;;;13.60;4.90;;;;;;;17.75;29.04;151743.03;5049014;28;20038;-67
2023/04/19 07:14:42;;;;;;;10.20;4.40;;;;;;;17.36;27.88;151646.34;5058794;28;20028;-66
2023/04/19 07:17:07;;;;;;;6.18;4.15;;;;;;;17.06;28.27;151570.34;5058053;28;20033;-67
2023/04/19 07:19:35;;;;;;;6.55;4.25;;;;;;;17.53;28.21;151687.56;5049218;28;20147;-66
2023/04/19 07:22:01;;;;;;;8.10;3.97;;;;;;;16.73;27.86;151487.78;5066123;28;20028;-66
2023/04/19 07:24:29;;;;;;;5.72;4.28;;;;;;;17.50;26.99;151679.84;5066108;28;20029;-67
2023/04/19 07:26:55;;;;;;;5.57;4.13;;;;;;;17.08;27.42;151576.75;5051869;28;20032;-66
2023/04/19 07:29:21;;;;;;;7.30;4.45;;;;;;;17.47;28.17;151673.41;5046062;28;20021;-68
2023/04/19 07:31:46;;;;;;;12.38;4.50;;;;;;;16.85;28.63;151517.44;5048948;28;20071;-68
2023/04/19 07:34:12;;;;;;;8.55;4.60;;;;;;;16.46;28.26;151419.53;5050511;28;20336;-67
2023/04/19 07:36:38;;;;;;;7.72;3.80;;;;;;;16.29;28.37;151378.34;5065676;28;20022;-67
2023/04/19 07:39:03;;;;;;;10.40;4.78;;;;;;;16.95;28.35;151543.25;5049681;28;20049;-67
2023/04/19 07:41:30;;;;;;;10.63;4.88;;;;;;;16.54;28.85;151441.41;5043794;28;20191;-66
2023/04/19 07:43:56;;;;;;;7.88;4.70;;;;;;;17.01;29.06;151558.69;5045585;28;20029;-67
2023/04/19 07:46:22;;;;;;;6.70;4.35;;;;;;;17.45;29.26;151668.25;5046606;28;20116;-67
2023/04/19 07:48:47;;;;;;;7.72;4.28;;;;;;;16.67;29.07;151473.63;5064585;28;20096;-66
2023/04/19 07:51:16;;;;;;;5.32;4.43;;;;;;;16.56;29.43;151445.31;5048851;28;20033;-67
2023/04/19 07:53:43;;;;;;;12.32;4.22;;;;;;;16.77;28.99;151496.81;5057820;28;20052;-67
2023/04/19 07:56:10;;;;;;;8.95;4.70;;;;;;;16.68;29.25;151476.19;5065285;28;20075;-67
2023/04/19 07:58:36;;;;;;;8.80;4.70;;;;;;;16.25;29.46;151366.69;5064810;28;20294;-66
2023/04/19 08:01:02;;;;;;;9.95;4.65;;;;;;;16.43;29.39;151411.78;5048617;28;20029;-67
2023/04/19 08:03:29;;;;;;;7.60;4.13;;;;;;;15.64;29.72;151216.03;5063521;28;20033;-66
2023/04/19 08:05:55;;;;;;;7.97;3.92;;;;;;;15.61;29.90;151207.03;5051047;28;20198;-67
2023/04/19 08:08:20;;;;;;;6.85;4.10;;;;;;;15.73;29.63;151237.91;5045299;28;20026;-66
2023/04/19 08:10:46;;;;;;;8.55;4.32;;;;;;;16.00;29.67;151306.22;5048517;28;20146;-69
2023/04/19 08:13:12;;;;;;;11.13;4.45;;;;;;;16.14;28.73;151339.69;5065078;28;20091;-67
2023/04/19 08:15:37;;;;;;;5.32;3.70;;;;;;;15.74;29.44;151240.50;5064931;28;20092;-67
2023/04/19 08:18:05;;;;;;;6.88;4.32;;;;;;;16.12;29.04;151335.84;5050042;28;20052;-67
2023/04/19 08:20:31;;;;;;;6.93;4.32;;;;;;;16.16;29.26;151344.81;5045304;28;20029;-67
2023/04/19 08:22:58;;;;;;;9.73;4.47;;;;;;;16.83;28.82;151512.28;5050342;28;20095;-66
2023/04/19 08:25:27;;;;;;;14.40;4.72;;;;;;;17.15;28.89;151592.22;5063462;28;20259;-67
2023/04/19 08:27:56;;;;;;;7.43;4.03;;;;;;;16.57;28.46;151447.84;5044854;28;20380;-67
2023/04/19 08:30:22;;;;;;;5.53;4.03;;;;;;;16.31;28.82;151383.47;5062096;28;20244;-67
2023/04/19 08:32:47;;;;;;;9.57;4.25;;;;;;;16.05;28.93;151319.06;5060723;28;20036;-67
2023/04/19 08:35:13;;;;;;;8.38;4.20;;;;;;;16.36;28.34;151395.03;5050850;28;20029;-67
2023/04/19 08:37:39;;;;;;;8.40;3.92;;;;;;;15.84;28.59;151266.28;5044537;28;20202;-67
2023/04/19 08:40:05;;;;;;;7.85;4.03;;;;;;;16.04;28.42;151315.22;5044633;28;20032;-66
2023/04/19 08:42:32;;;;;;;8.07;4.25;;;;;;;16.66;28.20;151471.06;5044580;28;20360;-68
2023/04/19 08:45:02;;;;;;;12.73;4.10;;;;;;;16.70;28.34;151480.06;5058415;28;20321;-66
2023/04/19 08:47:34;;;;;;;8.52;4.45;;;;;;;16.61;28.09;151456.91;5054172;28;20294;-67
2023/04/19 08:50:02;;;;;;;4.65;4.15;;;;;;;17.00;28.02;151554.84;5034314;28;20029;-67
2023/04/19 08:52:29;;;;;;;4.82;3.90;;;;;;;17.47;27.53;151672.13;5049993;28;20277;-67
2023/04/19 08:54:56;;;;;;;15.57;4.85;;;;;;;16.80;27.74;151504.53;5044273;28;20068;-67
2023/04/19 08:57:21;;;;;;;4.93;4.03;;;;;;;16.54;28.72;151440.13;5061276;28;20043;-66
2023/04/19 08:59:51;;;;;;;9.63;4.15;;;;;;;17.11;28.65;151581.91;5052299;28;20048;-67
2023/04/19 09:02:16;;;;;;;7.50;4.40;;;;;;;17.03;28.58;151562.56;5052258;28;20025;-66
2023/04/19 09:04:42;;;;;;;4.75;3.85;;;;;;;16.65;28.05;151468.47;5057052;28;20088;-68
2023/04/19 09:07:08;;;;;;;10.05;4.25;;;;;;;16.55;27.97;151444.00;5051616;28;20364;-66
2023/04/19 09:09:35;;;;;;;6.38;4.05;;;;;;;16.55;28.52;151442.72;5049775;28;20029;-67
2023/04/19 09:12:01;;;;;;;5.47;4.22;;;;;;;16.44;28.31;151414.38;5057293;28;20033;-67
2023/04/19 09:14:28;;;;;;;5.95;4.28;;;;;;;16.25;28.92;151368.03;5059898;28;20025;-66
2023/04/19 09:17:02;;;;;;;7.07;4.00;;;;;;;16.34;29.07;151389.91;5052572;28;20084;-66
2023/04/19 09:19:44;;;;;;;9.23;4.03;;;;;;;16.23;29.15;151362.84;5052358;28;20036;-66
2023/04/19 09:22:13;;;;;;;7.53;4.45;;;;;;;16.19;29.41;151352.59;5055116;28;20029;-66
2023/04/19 09:24:39;;;;;;;7.60;4.40;;;;;;;16.49;29.29;151428.56;5052666;28;20013;-66
2023/04/19 09:27:05;;;;;;;6.43;4.05;;;;;;;16.95;28.91;151543.25;5053437;28;20104;-67
2023/04/19 09:29:30;;;;;;;8.32;4.47;;;;;;;16.85;29.14;151517.44;5058498;28;20023;-66
2023/04/19 09:31:58;;;;;;;9.80;4.32;;;;;;;16.42;29.10;151409.22;5052951;28;20092;-66
2023/04/19 09:34:23;;;;;;;9.93;4.32;;;;;;;17.06;29.16;151570.34;5051452;28;20221;-66
2023/04/19 09:36:49;;;;;;;4.70;4.10;;;;;;;16.70;29.42;151480.06;5048573;28;20064;-67
2023/04/19 09:39:30;;;;;;;6.28;4.07;;;;;;;16.12;29.40;151334.50;5052128;28;20048;-66
2023/04/19 09:41:57;;;;;;;8.63;3.85;;;;;;;16.21;29.92;151358.97;5052687;28;20059;-66
2023/04/19 09:44:23;;;;;;;5.05;4.25;;;;;;;16.17;30.14;151347.41;5053037;28;20025;-66
2023/04/19 09:46:51;;;;;;;6.53;4.07;;;;;;;15.88;30.62;151276.59;5051858;28;20021;-67
2023/04/19 09:49:25;;;;;;;5.53;4.15;;;;;;;16.60;29.93;151454.31;5042806;28;20017;-66
2023/04/19 09:51:52;;;;;;;8.00;4.35;;;;;;;16.69;29.51;151478.78;5052918;28;20040;-65
2023/04/19 09:54:20;;;;;;;4.82;4.00;;;;;;;16.86;29.24;151520.00;5047338;28;20105;-66
2023/04/19 09:56:47;;;;;;;8.77;4.40;;;;;;;17.03;29.03;151562.56;5043135;28;20090;-66
2023/04/19 09:59:13;;;;;;;6.13;4.10;;;;;;;17.07;29.69;151574.19;5046035;28;20029;-66
2023/04/19 10:01:42;;;;;;;5.97;3.65;;;;;;;17.24;29.47;151616.72;5041890;28;20045;-66
2023/04/19 10:04:20;;;;;;;4.65;3.80;;;;;;;16.65;29.77;151468.47;5049898;28;20064;-66
2023/04/19 10:06:50;;;;;;;7.53;4.18;;;;;;;16.49;29.53;151428.56;5053610;28;20072;-69
2023/04/19 10:09:18;;;;;;;6.82;4.15;;;;;;;16.55;30.30;151442.72;5054972;28;20029;-65
2023/04/19 10:11:50;;;;;;;7.43;3.90;;;;;;;16.41;30.02;151406.66;5052995;28;20065;-65
2023/04/19 10:14:24;;;;;;;7.03;3.72;;;;;;;16.20;30.00;151356.44;5054488;28;20032;-66
2023/04/19 10:16:50;;;;;;;5.32;3.60;;;;;;;16.39;29.70;151402.81;5053041;28;20341;-67
2023/04/19 10:19:19;;;;;;;5.80;3.70;;;;;;;16.68;29.16;151474.94;5052953;28;20026;-66
2023/04/19 10:21:46;;;;;;;7.47;3.67;;;;;;;16.82;28.90;151511.00;5053630;28;20017;-66
2023/04/19 10:24:14;;;;;;;9.50;4.43;;;;;;;16.95;29.42;151541.97;5053431;28;20053;-65
2023/04/19 10:27:09;;;;;;;9.90;3.92;;;;;;;16.99;29.20;151553.56;5052765;28;20035;-66
2023/04/19 10:29:58;;;;;;;8.00;4.07;;;;;;;17.37;29.05;151648.94;5053439;28;20033;-67
2023/04/19 10:32:40;;;;;;;4.47;3.92;;;;;;;17.45;28.20;151667.00;5052503;28;20364;-67
2023/04/19 10:35:10;;;;;;;;;;;;;;;17.29;27.89;151628.31;5056947;28;20037;-66
2023/04/19 10:37:40;;;;;;;5.18;3.60;;;;;;;17.41;29.24;151657.94;5053804;28;19909;-67
2023/04/19 10:40:06;;;;;;;6.68;4.55;;;;;;;17.19;28.28;151603.81;5053080;28;20068;-65
2023/04/19 10:43:10;;;;;;;5.80;4.45;;;;;;;17.18;28.43;151599.97;5051536;28;20049;-66
2023/04/19 10:45:36;;;;;;;11.95;3.55;;;;;;;17.25;28.21;151619.28;5053222;28;20105;-66
2023/04/19 10:48:03;;;;;;;5.45;3.70;;;;;;;17.60;28.76;151705.66;5049071;28;20041;-66
2023/04/19 10:50:29;;;;;;;4.63;3.83;;;;;;;17.73;28.45;151737.91;5052191;28;20274;-67
2023/04/19 10:52:54;;;;;;;6.50;3.42;;;;;;;17.80;27.69;151754.63;5052778;28;20038;-66
2023/04/19 10:55:20;;;;;;;5.50;3.95;;;;;;;17.71;27.60;151732.72;5042686;28;20219;-66
2023/04/19 10:58:06;;;;;;;6.40;4.00;;;;;;;17.55;27.25;151692.75;5042624;28;20225;-68
2023/04/19 11:00:32;;;;;;;6.97;4.03;;;;;;;17.73;27.86;151737.91;5060135;28;20321;-67
2023/04/19 11:03:35;;;;;;;6.03;4.03;;;;;;;17.46;27.36;151669.53;5049722;28;20085;-67
2023/04/19 11:06:25;;;;;;;8.82;4.32;;;;;;;17.11;27.44;151581.91;5052133;28;20018;-66
2023/04/19 11:08:51;;;;;;;6.57;3.70;;;;;;;17.69;28.11;151727.56;5052931;28;20081;-66
2023/04/19 11:11:19;;;;;;;8.07;3.88;;;;;;;17.28;27.22;151624.44;5053167;28;20061;-67
2023/04/19 11:13:47;;;;;;;8.25;4.22;;;;;;;16.92;28.15;151535.53;5053470;28;20032;-66
2023/04/19 11:16:13;;;;;;;5.70;3.70;;;;;;;16.64;28.30;151465.91;5055814;28;20033;-66
2023/04/19 11:18:38;;;;;;;8.82;3.92;;;;;;;16.82;27.88;151511.00;5056538;28;20027;-67
2023/04/19 11:21:04;;;;;;;5.22;3.83;;;;;;;16.80;28.11;151504.53;5055392;28;20051;-66